Time;durP1;ratioP1;P1;durP2;ratioP2;P2;SDS_P1;SDS_P2;PMS_P1;PMS_P2;Temp;Humidity;BMP_temperature;BMP_pressure;BME280_temperature;BME280_humidity;BME280_pressure;Samples;Min_cycle;Max_cycle;Signal;HPM_P1;HPM_P2
2021/09/21 00:00:36;;;;;;;12.15;9.27;;;13.20;75.60;;;11.79;80.23;96632.41;4963438;28;20504;-66
2021/09/21 00:03:01;;;;;;;9.43;8.50;;;13.10;75.50;;;11.78;80.22;96630.72;4973098;28;20035;-66
2021/09/21 00:05:27;;;;;;;10.13;8.13;;;13.10;75.90;;;11.77;79.71;96627.28;4954930;28;20043;-66
2021/09/21 00:07:53;;;;;;;9.90;7.95;;;13.10;75.60;;;11.75;79.47;96623.16;4972476;28;20058;-66
2021/09/21 00:10:18;;;;;;;10.25;8.23;;;13.10;75.70;;;11.74;80.44;96619.72;4974172;28;20066;-67
2021/09/21 00:12:44;;;;;;;10.90;8.60;;;13.10;76.00;;;11.73;80.36;96620.72;4990086;28;20019;-65
2021/09/21 00:15:13;;;;;;;9.50;8.02;;;13.10;76.10;;;11.74;80.67;96616.25;4954654;28;20564;-65
2021/09/21 00:17:39;;;;;;;10.57;8.63;;;13.20;76.40;;;11.76;80.38;96609.81;4974440;28;20225;-65
2021/09/21 00:20:06;;;;;;;10.18;8.07;;;13.20;76.40;;;11.78;80.28;96612.28;4973222;28;20035;-65
2021/09/21 00:22:32;;;;;;;11.88;9.77;;;13.30;76.30;;;11.79;80.49;96613.94;4973431;28;20030;-65
2021/09/21 00:24:58;;;;;;;9.55;8.55;;;13.20;76.50;;;11.79;80.37;96616.59;4970419;28;20410;-65
2021/09/21 00:27:23;;;;;;;10.40;9.07;;;13.20;76.50;;;11.80;80.97;96607.69;4954605;28;20138;-64
2021/09/21 00:29:49;;;;;;;12.57;8.60;;;13.20;76.70;;;11.80;80.45;96605.03;4969693;28;20034;-65
2021/09/21 00:32:25;;;;;;;10.18;9.15;;;13.20;76.70;;;11.79;80.74;96608.69;4999959;28;20046;-65
2021/09/21 00:34:51;;;;;;;10.32;9.10;;;13.20;76.70;;;11.78;81.53;96613.13;4970865;28;20030;-64
2021/09/21 00:37:17;;;;;;;10.80;9.18;;;13.30;76.90;;;11.81;81.54;96617.22;4972746;28;20066;-65
2021/09/21 00:39:43;;;;;;;11.55;9.93;;;13.30;76.80;;;11.82;81.30;96618.84;4988833;28;20057;-65
2021/09/21 00:42:09;;;;;;;11.82;9.07;;;13.30;77.00;;;11.83;81.63;96620.47;4956871;28;20045;-65
2021/09/21 00:44:36;;;;;;;10.13;8.80;;;13.30;77.00;;;11.80;81.06;96621.66;4987201;28;20034;-65
2021/09/21 00:47:06;;;;;;;10.98;9.00;;;13.20;76.60;;;11.80;80.71;96626.94;4972060;28;20450;-65
2021/09/21 00:49:33;;;;;;;10.65;9.10;;;13.30;76.30;;;11.79;80.98;96625.31;4973521;28;20122;-65
2021/09/21 00:51:59;;;;;;;10.43;9.05;;;13.30;76.40;;;11.80;81.16;96631.41;4956922;28;20080;-65
2021/09/21 00:54:24;;;;;;;11.27;9.02;;;13.30;76.40;;;11.80;81.48;96629.59;4970254;28;20118;-65
2021/09/21 00:56:50;;;;;;;17.40;8.80;;;13.30;76.40;;;11.80;81.64;96626.13;4977675;28;20054;-65
2021/09/21 00:59:16;;;;;;;10.30;8.82;;;13.30;76.50;;;11.81;81.33;96625.13;4971349;28;20034;-65
2021/09/21 01:01:41;;;;;;;11.07;9.30;;;13.30;76.30;;;11.82;81.06;96624.13;4968386;28;20050;-65
2021/09/21 01:04:07;;;;;;;9.73;8.75;;;13.30;76.10;;;11.79;81.33;96621.84;4982453;28;20063;-65
2021/09/21 01:06:33;;;;;;;11.73;8.55;;;13.30;76.30;;;11.78;81.19;96623.69;4956993;28;20051;-65
2021/09/21 01:08:59;;;;;;;9.88;8.85;;;13.30;76.60;;;11.79;81.62;96620.03;4971542;28;20089;-65
2021/09/21 01:11:24;;;;;;;11.55;8.90;;;13.30;76.70;;;11.80;81.61;96620.84;4971418;28;20578;-65
2021/09/21 01:13:51;;;;;;;12.68;8.55;;;13.30;76.50;;;11.82;81.70;96624.13;4973237;28;20537;-65
2021/09/21 01:16:20;;;;;;;10.30;9.07;;;13.30;76.30;;;11.82;81.38;96619.66;4972557;28;20143;-65
2021/09/21 01:18:45;;;;;;;8.98;8.07;;;13.30;76.20;;;11.82;80.82;96618.84;4988096;28;20100;-65
2021/09/21 01:21:11;;;;;;;12.98;8.18;;;13.30;76.30;;;11.83;81.59;96616.03;4988085;28;20514;-66
2021/09/21 01:23:52;;;;;;;10.43;8.50;;;13.30;76.50;;;11.86;81.88;96625.38;4988514;28;20061;-65
2021/09/21 01:26:18;;;;;;;9.93;8.75;;;13.40;76.60;;;11.87;81.76;96627.03;4988863;28;20035;-65
2021/09/21 01:28:44;;;;;;;9.95;8.88;;;13.40;76.80;;;11.86;81.23;96625.38;4973243;28;20034;-65
2021/09/21 01:31:10;;;;;;;10.77;9.40;;;13.40;76.90;;;11.88;81.71;96621.56;4971623;28;20716;-66
2021/09/21 01:33:36;;;;;;;9.35;8.35;;;13.40;76.80;;;11.88;82.31;96626.00;4967557;28;20022;-65
2021/09/21 01:36:02;;;;;;;13.93;8.52;;;13.40;77.10;;;11.87;81.28;96627.03;4988476;28;20466;-65
2021/09/21 01:38:27;;;;;;;10.65;9.38;;;13.30;77.10;;;11.83;82.11;96631.84;4989163;28;20045;-65
2021/09/21 01:40:53;;;;;;;10.55;9.45;;;13.30;77.10;;;11.84;81.51;96635.31;4985917;28;20035;-65
2021/09/21 01:43:19;;;;;;;13.50;9.20;;;13.30;77.10;;;11.82;81.85;96635.47;4970433;28;20059;-65
2021/09/21 01:45:44;;;;;;;10.45;9.30;;;13.30;77.10;;;11.82;81.86;96639.94;4984815;28;20023;-65
2021/09/21 01:48:10;;;;;;;10.40;9.10;;;13.30;77.20;;;11.81;81.78;96648.84;4989538;28;20134;-65
2021/09/21 01:51:12;;;;;;;12.20;8.75;;;13.20;77.30;;;11.78;82.82;96636.00;4975148;28;20395;-65
2021/09/21 02:01:07;;;;;;;13.27;9.30;;;13.30;78.20;;;11.80;82.75;96641.94;4955273;28;20057;-65
2021/09/21 02:03:34;;;;;;;10.32;8.68;;;13.30;77.80;;;11.81;82.79;96644.41;4971009;28;20078;-65
2021/09/21 02:06:00;;;;;;;13.95;9.85;;;13.40;77.40;;;11.82;82.30;96645.22;4972345;28;20134;-65
2021/09/21 02:08:25;;;;;;;11.60;9.05;;;13.30;77.10;;;11.83;81.92;96646.84;4986767;28;20112;-65
2021/09/21 02:10:51;;;;;;;11.38;9.10;;;13.40;76.90;;;11.84;82.61;96643.22;4972027;28;20092;-65
2021/09/21 02:13:17;;;;;;;12.07;9.60;;;13.40;77.00;;;11.83;82.30;96642.38;4988050;28;20058;-66
2021/09/21 02:15:43;;;;;;;9.75;8.55;;;13.40;76.80;;;11.87;82.60;96653.38;4972645;28;20046;-66
2021/09/21 02:18:08;;;;;;;12.48;9.02;;;13.40;76.80;;;11.87;82.31;96654.19;4971799;28;20506;-65
2021/09/21 02:20:34;;;;;;;10.43;8.98;;;13.40;76.50;;;11.86;81.76;96651.75;4988101;28;20031;-66
2021/09/21 02:23:00;;;;;;;11.07;8.50;;;13.40;76.50;;;11.86;82.04;96646.47;4972077;28;20062;-66
2021/09/21 02:25:26;;;;;;;11.52;10.00;;;13.40;76.30;;;11.86;82.01;96655.19;4970490;28;20039;-65
2021/09/21 02:27:52;;;;;;;10.35;8.77;;;13.40;76.50;;;11.87;82.14;96663.91;4988658;28;20037;-66
2021/09/21 02:30:17;;;;;;;10.43;9.35;;;13.40;76.20;;;11.85;81.36;96656.19;4973669;28;20035;-66
2021/09/21 02:32:44;;;;;;;10.07;8.98;;;13.30;76.00;;;11.85;82.20;96666.75;4975158;28;20031;-66
2021/09/21 02:35:10;;;;;;;10.70;9.23;;;13.30;76.60;;;11.83;81.29;96658.19;4957927;28;20114;-66
2021/09/21 02:37:35;;;;;;;12.00;10.80;;;13.30;76.00;;;11.82;81.62;96661.03;4971371;28;20050;-66
2021/09/21 02:40:03;;;;;;;24.85;19.55;;;13.30;76.30;;;11.83;81.93;96652.94;4956558;28;20034;-66
2021/09/21 02:42:29;;;;;;;16.13;13.52;;;13.40;76.50;;;11.84;81.42;96661.66;4987522;28;20034;-64
2021/09/21 02:44:54;;;;;;;11.48;9.57;;;13.40;76.50;;;11.83;81.47;96673.19;4960647;28;20046;-64
2021/09/21 02:47:20;;;;;;;10.43;9.38;;;13.30;76.30;;;11.82;81.75;96680.28;4982596;28;20031;-64
2021/09/21 02:49:46;;;;;;;10.43;9.32;;;13.30;76.50;;;11.81;81.82;96677.84;4952312;28;20054;-64
2021/09/21 02:52:11;;;;;;;11.98;8.95;;;13.30;76.00;;;11.81;81.12;96669.94;4988009;28;20042;-65
2021/09/21 02:54:37;;;;;;;11.15;9.35;;;13.30;76.10;;;11.80;81.75;96670.94;4970786;28;20069;-65
2021/09/21 02:57:03;;;;;;;10.48;8.55;;;13.30;76.50;;;11.80;81.98;96668.31;4987403;28;20026;-65
2021/09/21 02:59:29;;;;;;;10.98;8.88;;;13.30;76.60;;;11.80;81.96;96665.66;4991456;28;20489;-65
2021/09/21 03:01:54;;;;;;;16.52;10.18;;;13.40;76.50;;;11.81;82.03;96664.66;4973892;28;20449;-64
2021/09/21 03:04:33;;;;;;;11.25;10.13;;;13.30;76.40;;;11.81;81.63;96672.56;4969957;28;20038;-64
2021/09/21 03:07:26;;;;;;;9.85;8.80;;;13.30;76.60;;;11.80;82.18;96668.31;4977269;28;20038;-65
2021/09/21 03:09:52;;;;;;;12.55;9.60;;;13.30;76.80;;;11.78;82.63;96676.41;4990996;28;20089;-65
2021/09/21 03:17:37;;;;;;;10.82;9.75;;;13.30;76.80;;;11.78;82.45;96691.34;4991060;28;20756;-65
2021/09/21 03:20:03;;;;;;;10.82;9.70;;;13.30;76.60;;;11.76;81.74;96691.50;4990828;28;20027;-65
2021/09/21 03:22:29;;;;;;;11.05;9.88;;;13.30;76.10;;;11.77;81.60;96684.41;4990347;28;20038;-65
2021/09/21 03:24:55;;;;;;;11.30;9.93;;;13.40;76.00;;;11.76;81.65;96680.97;4964755;28;20418;-65
2021/09/21 03:27:20;;;;;;;11.32;9.43;;;13.40;75.60;;;11.79;81.78;96688.56;4973050;28;20049;-65
2021/09/21 03:29:46;;;;;;;11.52;10.32;;;13.40;75.70;;;11.80;81.60;96684.13;4971477;28;20039;-65
2021/09/21 03:32:12;;;;;;;13.18;10.00;;;13.40;75.80;;;11.81;81.07;96683.94;4954429;28;20046;-64
2021/09/21 03:34:38;;;;;;;12.45;10.45;;;13.40;75.60;;;11.80;81.41;96684.13;4985813;28;20035;-64
2021/09/21 03:37:08;;;;;;;11.13;9.98;;;13.30;75.60;;;11.79;81.72;96688.56;4973893;28;20560;-66
2021/09/21 03:39:33;;;;;;;12.60;10.65;;;13.40;75.80;;;11.80;81.12;96690.22;4989171;28;20042;-66
2021/09/21 03:41:59;;;;;;;13.35;10.85;;;13.40;76.00;;;11.82;81.20;96690.03;4974656;28;20097;-66
2021/09/21 03:44:26;;;;;;;15.75;10.88;;;13.40;76.00;;;11.83;81.19;96689.03;4972911;28;20053;-68
2021/09/21 03:46:53;;;;;;;11.70;10.50;;;13.40;76.00;;;11.83;82.10;96686.38;4971326;28;20038;-70
2021/09/21 03:49:19;;;;;;;11.65;10.40;;;13.40;76.30;;;11.84;82.46;96690.66;4972626;28;20042;-69
2021/09/21 03:51:45;;;;;;;12.15;10.65;;;13.40;76.80;;;11.86;82.55;96688.66;4970905;28;20027;-69
2021/09/21 03:54:11;;;;;;;12.32;10.70;;;13.40;77.20;;;11.86;81.97;96689.47;4986166;28;20054;-68
2021/09/21 03:56:37;;;;;;;11.43;10.23;;;13.40;77.20;;;11.84;82.72;96695.94;4973139;28;20149;-68
2021/09/21 03:59:06;;;;;;;13.15;11.25;;;13.40;77.40;;;11.81;83.20;96706.84;4972123;28;20114;-66
2021/09/21 04:01:32;;;;;;;13.30;10.35;;;13.30;77.70;;;11.78;82.85;96708.03;4960915;28;20034;-66
2021/09/21 04:03:58;;;;;;;12.30;10.45;;;13.30;77.80;;;11.78;82.87;96701.91;4973928;28;20088;-66
2021/09/21 04:06:24;;;;;;;13.98;12.32;;;13.30;77.60;;;11.75;83.43;96697.78;4969858;28;20037;-66
2021/09/21 04:08:50;;;;;;;18.55;14.50;;;13.30;77.40;;;11.75;82.96;96702.22;4957394;28;20030;-66
2021/09/21 04:11:16;;;;;;;12.90;11.43;;;13.20;77.30;;;11.72;82.99;96697.31;4973566;28;20031;-66
2021/09/21 04:13:42;;;;;;;12.52;11.23;;;13.20;77.40;;;11.70;83.39;96704.59;4986664;28;20041;-66
2021/09/21 04:16:07;;;;;;;29.52;26.30;;;13.20;77.50;;;11.69;83.29;96702.97;4938751;28;20035;-66
2021/09/21 04:18:33;;;;;;;15.45;13.30;;;13.20;77.80;;;11.68;83.25;96696.06;4974156;28;20077;-66
2021/09/21 04:20:59;;;;;;;12.38;11.10;;;13.10;77.80;;;11.65;82.91;96708.59;4989453;28;20038;-66
2021/09/21 04:23:25;;;;;;;12.32;10.45;;;13.20;77.80;;;11.63;83.54;96715.06;4982962;28;20035;-66
2021/09/21 04:25:50;;;;;;;13.82;11.35;;;13.10;78.10;;;11.60;83.62;96710.97;4974256;28;20034;-66
2021/09/21 04:28:17;;;;;;;12.90;11.55;;;13.10;78.30;;;11.59;83.41;96711.97;4973780;28;20084;-66
2021/09/21 04:30:44;;;;;;;13.02;11.35;;;13.10;78.10;;;11.58;84.21;96723.50;4973642;28;20065;-66
2021/09/21 04:33:10;;;;;;;14.05;11.25;;;13.10;78.20;;;11.57;84.13;96718.41;4973202;28;20147;-66
2021/09/21 04:35:37;;;;;;;13.30;10.65;;;13.10;78.30;;;11.56;83.80;96730.78;4966265;28;20041;-66
2021/09/21 04:38:03;;;;;;;13.13;11.82;;;13.10;78.30;;;11.53;84.19;96731.09;4986271;28;20031;-66
2021/09/21 04:40:29;;;;;;;14.30;11.95;;;13.10;78.30;;;11.52;83.89;96740.00;4986933;28;20089;-65
2021/09/21 04:42:54;;;;;;;11.90;10.70;;;13.00;78.30;;;11.50;83.40;96735.91;4989152;28;20065;-66
2021/09/21 04:45:20;;;;;;;19.55;11.90;;;13.00;78.30;;;11.51;84.22;96737.56;4957103;28;20965;-64
2021/09/21 04:47:46;;;;;;;13.25;11.75;;;13.10;78.30;;;11.51;83.86;96735.75;4972156;28;20563;-64
2021/09/21 04:50:12;;;;;;;13.18;11.75;;;13.10;78.20;;;11.49;84.29;96740.38;4990334;28;20118;-67
2021/09/21 04:52:37;;;;;;;14.23;12.07;;;13.10;78.10;;;11.50;84.40;96749.91;4979334;28;20034;-67
2021/09/21 04:55:04;;;;;;;13.70;12.30;;;13.10;78.20;;;11.47;84.10;96758.16;4962256;28;20061;-68
2021/09/21 04:57:30;;;;;;;16.50;13.73;;;13.00;78.20;;;11.47;84.43;96758.16;4988657;28;20030;-68
2021/09/21 04:59:55;;;;;;;25.08;21.88;;;13.00;78.40;;;11.48;84.09;96753.72;4988911;28;20049;-67
2021/09/21 05:02:21;;;;;;;19.10;17.10;;;13.10;78.80;;;11.47;85.11;96758.16;4988374;28;20041;-68
2021/09/21 05:04:47;;;;;;;16.85;14.60;;;13.10;78.70;;;11.48;84.95;96759.81;4990275;28;20046;-66
2021/09/21 05:07:12;;;;;;;34.85;28.60;;;13.10;78.70;;;11.50;84.25;96754.34;4988365;28;20105;-64
2021/09/21 05:09:38;;;;;;;36.70;30.67;;;13.10;78.70;;;11.52;84.58;96755.81;4989790;28;20094;-69
2021/09/21 05:12:05;;;;;;;25.77;22.85;;;13.10;78.70;;;11.52;84.61;96763.72;4982864;28;20038;-69
2021/09/21 05:14:32;;;;;;;21.08;18.85;;;13.10;78.30;;;11.53;84.29;96762.72;4962269;28;20049;-69
2021/09/21 05:16:58;;;;;;;24.58;21.98;;;13.10;78.00;;;11.54;84.44;96769.66;4985753;28;20414;-69
2021/09/21 05:19:24;;;;;;;25.00;22.35;;;13.10;77.70;;;11.55;83.85;96773.13;4949958;28;20533;-69
2021/09/21 05:21:50;;;;;;;16.42;14.65;;;13.10;77.70;;;11.55;83.60;96770.47;4987515;28;20034;-67
2021/09/21 05:24:15;;;;;;;15.55;13.82;;;13.10;77.50;;;11.56;84.09;96772.94;4969973;28;20054;-67
2021/09/21 05:26:41;;;;;;;14.80;13.27;;;13.10;77.20;;;11.57;83.86;96790.38;4976380;28;20050;-64
2021/09/21 05:29:07;;;;;;;14.52;12.98;;;13.20;77.10;;;11.59;83.83;96785.75;4984339;28;20544;-66
2021/09/21 05:31:33;;;;;;;14.73;13.30;;;13.20;76.90;;;11.61;83.06;96785.56;4970507;28;20387;-64
2021/09/21 05:34:00;;;;;;;14.23;12.73;;;13.20;77.20;;;11.61;83.22;96791.66;4958670;28;20703;-65
2021/09/21 05:36:25;;;;;;;13.25;11.90;;;13.20;77.40;;;11.63;83.78;96794.94;4969086;28;20513;-65
2021/09/21 05:38:51;;;;;;;14.80;12.88;;;13.30;77.90;;;11.65;83.93;96792.94;4987780;28;20038;-67
2021/09/21 05:41:17;;;;;;;15.80;12.82;;;13.30;77.90;;;11.69;83.94;96801.28;4987615;28;20122;-67
2021/09/21 05:43:42;;;;;;;14.82;13.32;;;13.30;78.00;;;11.73;83.72;96814.94;4969486;28;20545;-64
2021/09/21 05:46:08;;;;;;;27.02;22.33;;;13.40;77.50;;;11.76;84.23;96819.84;4980260;28;20618;-69
2021/09/21 05:48:34;;;;;;;16.52;14.75;;;13.50;77.50;;;11.80;83.48;96821.19;4984115;28;20057;-67
2021/09/21 05:51:00;;;;;;;14.68;13.13;;;13.40;77.00;;;11.80;82.92;96826.44;4986848;28;20088;-67
2021/09/21 05:53:25;;;;;;;14.13;12.52;;;13.40;76.60;;;11.81;82.39;96833.34;4980543;28;20042;-66
2021/09/21 05:55:51;;;;;;;14.15;12.65;;;13.50;76.00;;;11.83;82.38;96836.63;4970436;28;20084;-65
2021/09/21 05:58:17;;;;;;;16.00;13.07;;;13.50;76.00;;;11.84;83.02;96840.91;4988936;28;20129;-65
2021/09/21 06:00:43;;;;;;;14.02;12.20;;;13.50;76.40;;;11.86;82.79;96847.63;4971450;28;20084;-70
2021/09/21 06:03:08;;;;;;;16.13;12.38;;;13.50;76.60;;;11.90;83.06;96848.09;4986184;28;20038;-72
2021/09/21 06:05:34;;;;;;;13.43;11.63;;;13.60;76.60;;;11.91;82.44;96844.47;4981887;28;20058;-65
2021/09/21 06:08:00;;;;;;;17.65;13.00;;;13.60;76.20;;;11.94;82.71;96849.38;4971821;28;20084;-65
2021/09/21 06:10:27;;;;;;;13.88;12.32;;;13.60;76.30;;;11.96;82.85;96853.47;4936562;28;20034;-67
2021/09/21 06:12:52;;;;;;;14.73;13.00;;;13.60;76.70;;;11.99;83.17;96860.19;4965397;28;20137;-68
2021/09/21 06:15:19;;;;;;;14.68;12.98;;;13.60;76.60;;;12.01;82.59;96858.22;4965896;28;20101;-65
2021/09/21 06:17:45;;;;;;;14.80;12.95;;;13.60;76.30;;;12.00;82.76;96858.41;4976347;28;20145;-65
2021/09/21 06:20:11;;;;;;;14.10;12.63;;;13.60;76.20;;;12.01;82.70;96868.78;4987605;28;20117;-67
2021/09/21 06:22:38;;;;;;;14.38;12.13;;;13.60;76.50;;;12.02;82.87;96867.78;4987422;28;20177;-65
2021/09/21 06:25:05;;;;;;;15.20;12.30;;;13.60;76.60;;;12.02;82.77;96870.41;4986728;28;20093;-67
2021/09/21 06:27:31;;;;;;;17.10;12.20;;;13.60;76.60;;;12.04;83.05;96868.41;4985425;28;20034;-66
2021/09/21 06:29:57;;;;;;;13.15;11.85;;;13.70;76.80;;;12.08;83.03;96871.50;4987955;28;20058;-66
2021/09/21 06:32:23;;;;;;;14.50;13.00;;;13.80;77.10;;;12.12;83.36;96876.22;4987670;28;20121;-67
2021/09/21 06:34:48;;;;;;;16.30;12.82;;;13.80;76.60;;;12.16;83.38;96872.22;4991539;28;20097;-66
2021/09/21 06:37:14;;;;;;;13.02;11.73;;;13.90;76.20;;;12.20;82.83;96878.78;4991865;28;20042;-66
2021/09/21 06:39:41;;;;;;;14.20;12.30;;;14.00;75.80;;;12.23;82.85;96878.44;4988791;28;20086;-66
2021/09/21 06:42:08;;;;;;;14.13;12.43;;;14.00;75.80;;;12.24;82.75;96877.44;4967463;28;20085;-64
2021/09/21 06:44:33;;;;;;;13.98;12.48;;;14.00;75.80;;;12.27;82.74;96882.34;4989806;28;20046;-65
2021/09/21 06:46:59;;;;;;;15.40;13.35;;;14.10;75.50;;;12.31;82.84;96882.81;4975174;28;20520;-65
2021/09/21 06:49:25;;;;;;;14.10;12.52;;;14.10;75.60;;;12.33;81.99;96880.81;4956166;28;20058;-66
2021/09/21 06:51:50;;;;;;;13.63;12.23;;;14.10;75.20;;;12.37;82.44;96886.53;4949715;28;20167;-66
2021/09/21 06:54:16;;;;;;;15.40;12.98;;;14.10;74.90;;;12.41;81.67;96882.53;4969213;28;20039;-65
2021/09/21 06:56:42;;;;;;;13.68;12.27;;;14.20;74.90;;;12.45;82.08;96889.13;4978955;28;20113;-65
2021/09/21 06:59:08;;;;;;;14.55;13.02;;;14.30;74.90;;;12.51;81.92;96885.75;4973337;28;20100;-65
2021/09/21 07:01:33;;;;;;;15.30;13.00;;;14.30;74.30;;;12.54;81.49;96880.09;4991069;28;20034;-66
2021/09/21 07:03:59;;;;;;;13.70;12.32;;;14.40;73.70;;;12.58;81.20;96884.00;4971204;28;20070;-67
2021/09/21 07:06:25;;;;;;;15.25;12.90;;;14.40;73.20;;;12.65;81.01;96884.91;4987494;28;20038;-67
2021/09/21 07:08:51;;;;;;;13.07;11.77;;;14.50;73.00;;;12.73;81.11;96879.56;4975290;28;20066;-67
2021/09/21 07:11:18;;;;;;;14.00;12.43;;;14.70;73.00;;;12.83;80.47;96888.00;4974351;28;20030;-67
2021/09/21 07:13:44;;;;;;;13.95;12.48;;;14.80;72.50;;;12.89;79.99;96892.53;4970987;28;20043;-67
2021/09/21 07:16:10;;;;;;;15.70;12.43;;;14.80;71.00;;;12.95;79.80;96890.19;4971319;28;20066;-63
2021/09/21 07:18:35;;;;;;;13.15;11.73;;;14.90;71.00;;;12.99;79.10;96894.09;4951411;28;20043;-65
2021/09/21 07:21:02;;;;;;;16.23;12.10;;;14.90;70.60;;;13.08;78.43;96898.25;4982172;28;20454;-65
2021/09/21 07:23:27;;;;;;;16.13;11.68;;;15.00;70.00;;;13.13;78.41;96896.72;4970742;28;20432;-66
2021/09/21 07:25:53;;;;;;;13.57;11.55;;;15.10;68.50;;;13.23;77.90;96898.25;4971302;28;20034;-65
2021/09/21 07:28:19;;;;;;;12.98;11.70;;;15.20;68.80;;;13.31;76.83;96892.84;4957724;28;20902;-67
2021/09/21 07:30:44;;;;;;;13.07;11.68;;;15.30;69.00;;;13.38;76.40;96891.13;4957879;28;20505;-66
2021/09/21 07:33:15;;;;;;;12.23;10.82;;;15.40;67.20;;;13.45;76.55;96898.13;4989217;28;20116;-67
2021/09/21 07:35:41;;;;;;;13.15;10.18;;;15.50;67.10;;;13.52;74.60;96905.28;4989673;28;20038;-66
2021/09/21 07:38:06;;;;;;;13.07;10.52;;;15.50;64.10;;;13.57;74.47;96910.81;4958204;28;20038;-66
2021/09/21 07:40:35;;;;;;;12.23;9.73;;;15.60;63.10;;;13.64;73.68;96911.72;4974331;28;20030;-65
2021/09/21 07:43:04;;;;;;;11.10;9.75;;;15.70;62.90;;;13.74;71.75;96913.03;4989070;28;20158;-65
2021/09/21 07:45:33;;;;;;;10.93;9.43;;;15.90;61.80;;;13.85;71.97;96922.31;4988989;28;20118;-66
2021/09/21 07:47:59;;;;;;;11.45;8.73;;;16.10;61.20;;;13.96;70.57;96921.78;4972459;28;20030;-65
2021/09/21 07:50:26;;;;;;;9.73;8.70;;;16.10;58.70;;;14.07;70.23;96923.94;4989804;28;20561;-66
2021/09/21 07:52:53;;;;;;;9.95;8.95;;;16.30;58.60;;;14.21;69.25;96935.44;4989783;28;20485;-66
2021/09/21 07:55:19;;;;;;;9.65;8.57;;;16.50;58.40;;;14.31;68.86;96935.94;4972998;28;20165;-68
2021/09/21 07:57:45;;;;;;;10.90;8.65;;;16.50;57.00;;;14.43;67.79;96940.69;4973248;28;20647;-66
2021/09/21 08:00:13;;;;;;;8.98;7.72;;;16.60;57.50;;;14.52;68.05;96950.19;4957560;28;20030;-67
2021/09/21 08:02:39;;;;;;;8.57;7.68;;;16.60;56.80;;;14.59;65.92;96954.50;4972706;28;20525;-67
2021/09/21 08:05:05;;;;;;;11.50;7.72;;;16.60;55.50;;;14.63;65.54;96960.22;4973458;28;20042;-70
2021/09/21 08:07:31;;;;;;;9.45;8.05;;;16.70;55.30;;;14.70;66.11;96961.91;4985965;28;20114;-64
2021/09/21 08:10:01;;;;;;;8.82;7.93;;;16.80;56.60;;;14.79;66.54;96954.63;4979988;28;20081;-65
2021/09/21 08:12:28;;;;;;;11.27;8.60;;;16.80;59.00;;;14.87;67.30;96961.59;4989104;28;20048;-65
2021/09/21 08:14:54;;;;;;;9.15;8.25;;;17.00;59.30;;;14.96;67.25;96955.97;4973613;28;20558;-65
2021/09/21 08:17:23;;;;;;;7.40;6.63;;;17.10;57.80;;;15.06;65.11;96960.09;4987632;28;20185;-65
2021/09/21 08:19:49;;;;;;;8.70;7.25;;;17.20;54.60;;;15.16;65.08;96961.38;4969517;28;20510;-64
2021/09/21 08:22:16;;;;;;;7.80;6.82;;;17.30;52.70;;;15.24;64.33;96952.44;4980671;28;20042;-66
2021/09/21 08:24:42;;;;;;;8.63;6.50;;;17.50;52.20;;;15.36;63.36;96950.84;4989289;28;20132;-66
2021/09/21 08:27:07;;;;;;;7.97;6.43;;;17.70;52.50;;;15.48;62.99;96959.06;4987481;28;20538;-67
2021/09/21 08:29:33;;;;;;;8.40;7.10;;;17.80;52.80;;;15.60;63.15;96957.50;4981408;28;20054;-66
2021/09/21 08:31:59;;;;;;;6.72;6.03;;;18.00;51.30;;;15.73;61.60;96968.16;4961440;28;20417;-66
2021/09/21 08:34:26;;;;;;;7.82;5.90;;;18.10;50.50;;;15.81;61.14;96970.59;4983116;28;20485;-65
2021/09/21 08:36:51;;;;;;;7.55;6.82;;;18.20;50.40;;;15.84;60.12;96964.06;4970596;28;20050;-66
2021/09/21 08:39:18;;;;;;;7.97;6.25;;;18.10;48.50;;;15.85;59.07;96971.88;4986044;28;20034;-65
2021/09/21 08:41:44;;;;;;;8.15;7.03;;;18.10;48.60;;;15.93;60.82;96976.16;4967013;28;20453;-65
2021/09/21 08:44:10;;;;;;;7.90;6.22;;;18.30;50.60;;;16.04;60.50;96980.03;4982163;28;20072;-67
2021/09/21 08:46:36;;;;;;;8.18;6.90;;;18.40;49.80;;;16.14;59.92;96975.19;4954940;28;20039;-67
2021/09/21 08:49:02;;;;;;;7.60;5.60;;;18.50;50.70;;;16.20;58.59;96969.88;4981067;28;20493;-66
2021/09/21 08:51:27;;;;;;;5.70;5.05;;;18.60;46.70;;;16.24;57.80;96975.59;4952792;28;20122;-64
2021/09/21 08:53:53;;;;;;;6.00;5.32;;;18.70;45.80;;;16.37;57.21;96975.59;4966611;28;20053;-65
2021/09/21 08:56:19;;;;;;;6.28;5.13;;;19.00;45.20;;;16.56;56.16;96968.66;4956519;28;20038;-66
2021/09/21 08:58:58;;;;;;;7.70;5.55;;;19.30;42.90;;;16.74;53.14;96974.16;4985633;28;20042;-66
2021/09/21 09:01:24;;;;;;;7.40;6.00;;;19.50;43.80;;;16.94;56.37;96981.31;4987935;28;20038;-66
2021/09/21 09:03:56;;;;;;;7.22;5.85;;;20.00;44.70;;;17.26;53.87;96980.44;4988422;28;20077;-67
2021/09/21 09:06:22;;;;;;;5.60;5.10;;;20.30;43.20;;;17.45;54.45;96984.06;4969079;28;20039;-67
2021/09/21 09:08:48;;;;;;;6.13;5.00;;;20.40;41.60;;;17.60;54.66;96981.09;4955669;28;20101;-67
2021/09/21 09:11:26;;;;;;;5.68;4.97;;;20.60;41.40;;;17.85;52.51;96990.03;4968656;28;20039;-67
2021/09/21 09:13:55;;;;;;;7.43;5.63;;;20.80;42.90;;;18.05;53.74;97003.22;4951125;28;20144;-66
2021/09/21 09:16:25;;;;;;;6.75;5.38;;;21.10;41.10;;;18.20;53.31;96993.09;4972028;28;20498;-66
2021/09/21 09:19:08;;;;;;;6.75;5.40;;;20.90;42.20;;;18.30;51.08;96985.44;4965012;28;20039;-69
2021/09/21 09:21:39;;;;;;;6.40;5.60;;;21.00;42.40;;;18.42;50.61;96992.75;4970045;28;20046;-68
2021/09/21 09:24:07;;;;;;;6.63;5.25;;;21.20;40.80;;;18.51;53.30;96991.44;4985053;28;20088;-67
2021/09/21 09:26:37;;;;;;;6.13;4.95;;;21.40;40.40;;;18.57;50.30;96995.94;4985526;28;20046;-67
2021/09/21 09:29:12;;;;;;;;;;;21.30;40.10;;;18.57;48.27;96991.41;4965934;28;20391;-67
2021/09/21 09:31:39;;;;;;;9.50;6.43;;;21.40;38.90;;;18.58;51.81;96990.38;4978169;28;19922;-67
2021/09/21 09:34:21;;;;;;;8.43;6.13;;;21.10;39.10;;;18.58;47.19;96979.72;4988174;28;20038;-67
2021/09/21 09:36:54;;;;;;;11.65;6.45;;;20.90;38.40;;;18.60;49.04;96982.16;4997170;28;20394;-67
2021/09/21 09:39:22;;;;;;;10.43;6.97;;;21.10;40.60;;;18.66;49.85;96989.31;4988017;28;20038;-67
2021/09/21 09:41:51;;;;;;;17.20;10.38;;;21.20;39.40;;;18.78;50.19;96995.53;4981034;28;20125;-66
2021/09/21 09:44:23;;;;;;;12.77;7.18;;;21.40;40.80;;;18.89;48.74;96986.84;4987870;28;20414;-68
2021/09/21 09:46:55;;;;;;;6.43;5.43;;;21.60;40.10;;;18.98;48.59;96985.50;4984050;28;20038;-68
2021/09/21 09:49:23;;;;;;;8.43;6.43;;;21.60;38.00;;;19.19;49.45;96986.94;4965567;28;20069;-67
2021/09/21 09:51:49;;;;;;;7.15;5.85;;;22.30;37.70;;;19.40;48.44;96983.03;4979834;28;20106;-67
2021/09/21 09:54:16;;;;;;;18.75;11.45;;;22.60;36.50;;;19.97;48.87;96986.25;4982253;28;20498;-67
2021/09/21 09:56:42;;;;;;;8.07;6.93;;;24.20;35.00;;;20.34;48.47;96984.25;4981414;28;20267;-64
2021/09/21 09:59:09;;;;;;;7.93;5.70;;;24.30;35.20;;;20.68;48.69;96980.06;4971654;28;20122;-67
2021/09/21 10:01:34;;;;;;;6.35;4.90;;;25.00;34.40;;;21.12;48.09;96985.88;4974141;28;20470;-68
2021/09/21 10:04:01;;;;;;;7.43;5.60;;;25.70;32.30;;;;;;4985031;28;20035;-66
2021/09/21 10:06:31;;;;;;;6.00;5.40;;;26.10;30.90;;;21.94;43.56;96978.47;4986046;28;20177;-66
2021/09/21 10:08:57;;;;;;;6.80;4.77;;;26.30;30.80;;;22.31;45.23;96973.56;4975694;28;20045;-66
2021/09/21 10:11:28;;;;;;;6.18;5.28;;;27.10;29.70;;;22.81;43.66;96971.94;4987851;28;20501;-67
2021/09/21 10:13:54;;;;;;;7.10;5.20;;;28.60;27.30;;;23.42;44.43;96972.84;4975653;28;20073;-66
2021/09/21 10:16:20;;;;;;;6.75;4.50;;;28.90;26.50;;;23.83;43.27;96966.94;4990675;28;20038;-66
2021/09/21 10:18:52;;;;;;;5.57;4.63;;;28.80;27.40;;;24.21;39.77;96973.22;4974915;28;20057;-65
2021/09/21 10:21:18;;;;;;;7.75;4.80;;;29.10;28.30;;;24.33;42.47;96979.28;4975262;28;20450;-63
2021/09/21 10:23:46;;;;;;;5.97;4.55;;;28.70;27.40;;;24.35;41.46;96982.53;4975153;28;20053;-66